createdAt,value
2018-02-08T00:00:08.038Z,84.58
2018-02-08T00:02:36.385Z,84.52
2018-02-08T00:05:04.727Z,84.55
2018-02-08T00:07:33.083Z,84.72
2018-02-08T00:10:01.413Z,84.80
2018-02-08T00:12:29.783Z,84.59
2018-02-08T00:14:58.123Z,84.55
2018-02-08T00:17:26.475Z,84.69
2018-02-08T00:19:54.811Z,84.71
2018-02-08T00:22:34.972Z,84.66
2018-02-08T00:25:03.386Z,84.69
2018-02-08T00:27:31.728Z,84.83
2018-02-08T00:30:00.958Z,84.90
2018-02-08T00:32:29.336Z,85.04
2018-02-08T00:34:57.686Z,85.06
2018-02-08T00:37:26.013Z,85.22
2018-02-08T00:39:55.369Z,85.15
2018-02-08T00:42:23.706Z,85.25
2018-02-08T00:44:52.057Z,85.17
2018-02-08T00:47:20.383Z,85.11
2018-02-08T00:49:49.173Z,85.12
2018-02-08T00:52:17.505Z,85.00
2018-02-08T00:54:45.943Z,84.98
2018-02-08T00:57:14.287Z,85.05
2018-02-08T00:59:42.621Z,85.30
2018-02-08T01:02:10.966Z,85.12
2018-02-08T01:04:39.308Z,85.12
2018-02-08T01:07:07.658Z,85.22
2018-02-08T01:09:35.995Z,85.28
2018-02-08T01:12:04.377Z,85.49
2018-02-08T01:14:32.698Z,85.71
2018-02-08T01:17:01.068Z,85.61
2018-02-08T01:19:29.412Z,85.60
2018-02-08T01:21:57.746Z,85.65
2018-02-08T01:24:26.116Z,85.68
2018-02-08T01:26:54.445Z,85.60
2018-02-08T01:29:22.817Z,85.61
2018-02-08T01:31:51.145Z,85.37
2018-02-08T01:34:19.523Z,85.49
2018-02-08T01:36:47.859Z,85.83
2018-02-08T01:39:16.211Z,86.01
2018-02-08T01:41:44.588Z,85.91
2018-02-08T01:44:12.946Z,86.11
2018-02-08T01:46:41.266Z,86.25
2018-02-08T01:49:09.842Z,86.26
2018-02-08T01:51:38.220Z,86.04
2018-02-08T01:54:06.554Z,85.91
2018-02-08T01:56:34.908Z,85.73
2018-02-08T01:59:03.230Z,85.72
2018-02-08T02:01:31.577Z,85.82
2018-02-08T02:03:59.907Z,85.79
2018-02-08T02:06:28.293Z,85.71
2018-02-08T02:08:56.667Z,85.61
2018-02-08T02:11:25.091Z,85.64
2018-02-08T02:13:53.417Z,85.54
2018-02-08T02:16:21.793Z,85.45
2018-02-08T02:18:50.191Z,85.73
2018-02-08T02:21:18.523Z,85.78
2018-02-08T02:23:46.883Z,85.85
2018-02-08T02:26:15.223Z,85.82
2018-02-08T02:28:43.596Z,85.75
2018-02-08T02:31:11.910Z,85.70
2018-02-08T02:33:40.254Z,85.77
2018-02-08T02:36:08.611Z,85.70
2018-02-08T02:38:37.026Z,85.73
2018-02-08T02:41:05.345Z,85.76
2018-02-08T02:43:33.735Z,85.75
2018-02-08T02:46:02.064Z,85.73
2018-02-08T02:48:30.453Z,85.76
2018-02-08T02:50:58.773Z,85.83
2018-02-08T02:53:27.157Z,85.84
2018-02-08T02:55:55.482Z,85.76
2018-02-08T02:58:23.814Z,85.88
2018-02-08T03:00:52.174Z,85.80
2018-02-08T03:03:20.507Z,85.74
2018-02-08T03:05:48.860Z,85.95
2018-02-08T03:08:17.234Z,86.07
2018-02-08T03:10:45.617Z,86.18
2018-02-08T03:13:13.938Z,86.30
2018-02-08T03:15:42.306Z,86.27
2018-02-08T03:18:10.619Z,86.34
2018-02-08T03:20:38.993Z,86.25
2018-02-08T03:23:07.366Z,86.23
2018-02-08T03:25:35.722Z,86.27
2018-02-08T03:28:04.265Z,86.09
2018-02-08T03:30:38.312Z,86.00
2018-02-08T03:33:06.624Z,85.95
2018-02-08T03:35:34.959Z,86.02
2018-02-08T03:38:03.368Z,85.97
2018-02-08T03:40:31.714Z,85.84
2018-02-08T03:43:00.066Z,85.95
2018-02-08T03:45:28.401Z,86.06
2018-02-08T03:47:56.761Z,85.92
2018-02-08T03:50:25.095Z,85.96
2018-02-08T03:52:53.458Z,86.04
2018-02-08T03:55:21.787Z,85.87
2018-02-08T03:57:50.155Z,85.60
2018-02-08T04:00:18.485Z,85.57
2018-02-08T04:02:47.083Z,85.42
2018-02-08T04:05:15.414Z,85.29
2018-02-08T04:07:43.752Z,85.33
2018-02-08T04:10:12.126Z,85.38
2018-02-08T04:12:40.462Z,85.48
2018-02-08T04:15:08.829Z,85.71
2018-02-08T04:17:37.232Z,85.52
2018-02-08T04:20:05.570Z,85.53
2018-02-08T04:22:33.903Z,85.71
2018-02-08T04:25:02.249Z,85.72
2018-02-08T04:27:30.643Z,85.60
2018-02-08T04:29:59.097Z,85.50
2018-02-08T04:32:27.421Z,85.51
2018-02-08T04:34:55.751Z,85.42
2018-02-08T04:37:24.109Z,85.37
2018-02-08T04:40:04.439Z,85.29
2018-02-08T04:42:44.578Z,85.56
2018-02-08T04:45:24.702Z,85.54
2018-02-08T04:47:58.106Z,85.55
2018-02-08T04:50:26.520Z,85.51
2018-02-08T04:52:54.921Z,85.58
2018-02-08T04:55:23.258Z,85.59
2018-02-08T04:57:51.608Z,85.33
2018-02-08T05:00:20.226Z,85.12
2018-02-08T05:02:51.030Z,85.17
2018-02-08T05:05:19.356Z,85.21
2018-02-08T05:07:47.707Z,85.13
2018-02-08T05:10:16.034Z,85.24
2018-02-08T05:12:44.399Z,85.40
2018-02-08T05:15:12.729Z,85.36
2018-02-08T05:17:41.077Z,85.30
2018-02-08T05:20:09.455Z,85.32
2018-02-08T05:22:37.775Z,85.31
2018-02-08T05:25:06.190Z,85.28
2018-02-08T05:27:34.514Z,85.20
2018-02-08T05:30:02.891Z,85.27
2018-02-08T05:32:31.224Z,85.22
2018-02-08T05:34:59.572Z,85.24
2018-02-08T05:37:27.967Z,85.44
2018-02-08T05:39:56.460Z,85.36
2018-02-08T05:42:24.774Z,85.53
2018-02-08T05:44:53.114Z,85.45
2018-02-08T05:47:21.478Z,85.49
2018-02-08T05:49:49.854Z,85.53
2018-02-08T05:52:18.203Z,85.66
2018-02-08T05:54:46.547Z,85.71
2018-02-08T05:57:14.899Z,85.40
2018-02-08T05:59:43.325Z,85.28
2018-02-08T06:02:11.658Z,85.48
2018-02-08T06:04:40.014Z,85.55
2018-02-08T06:07:08.373Z,85.54
2018-02-08T06:09:36.714Z,85.55
2018-02-08T06:12:05.078Z,85.41
2018-02-08T06:14:33.471Z,85.25
2018-02-08T06:17:02.254Z,85.34
2018-02-08T06:19:30.632Z,85.51
2018-02-08T06:21:58.950Z,85.47
2018-02-08T06:24:27.308Z,85.32
2018-02-08T06:26:55.642Z,85.06
2018-02-08T06:29:24.008Z,85.01
2018-02-08T06:31:52.345Z,84.99
2018-02-08T06:34:20.705Z,85.00
2018-02-08T06:36:49.062Z,84.98
2018-02-08T06:39:17.463Z,85.08
2018-02-08T06:41:45.913Z,85.13
2018-02-08T06:44:14.319Z,85.02
2018-02-08T06:46:42.693Z,85.08
2018-02-08T06:49:11.002Z,85.09
2018-02-08T06:51:39.363Z,85.23
2018-02-08T06:54:07.716Z,85.16
2018-02-08T06:56:36.312Z,85.20
2018-02-08T06:59:04.630Z,85.01
2018-02-08T07:01:32.986Z,84.84
2018-02-08T07:04:01.338Z,84.86
2018-02-08T07:06:29.724Z,84.86
2018-02-08T07:08:58.115Z,84.97
2018-02-08T07:11:26.481Z,84.85
2018-02-08T07:13:54.801Z,84.85
2018-02-08T07:16:23.191Z,84.92
2018-02-08T07:18:51.525Z,84.87
2018-02-08T07:21:19.959Z,84.57
2018-02-08T07:23:48.443Z,84.60
2018-02-08T07:26:16.803Z,84.80
2018-02-08T07:31:24.245Z,84.19
2018-02-08T07:33:53.662Z,83.96
2018-02-08T07:36:22.054Z,83.64
2018-02-08T07:38:50.414Z,83.55
2018-02-08T07:41:18.749Z,83.50
2018-02-08T07:43:47.122Z,83.67
2018-02-08T07:46:15.473Z,83.77
2018-02-08T07:48:43.838Z,83.61
2018-02-08T07:51:15.381Z,83.68
2018-02-08T07:53:43.732Z,83.33
2018-02-08T07:56:13.058Z,83.53
2018-02-08T07:58:41.439Z,83.42
2018-02-08T08:01:09.919Z,83.24
2018-02-08T08:03:38.251Z,83.15
2018-02-08T08:06:06.605Z,83.03
2018-02-08T08:08:34.955Z,82.95
2018-02-08T08:11:03.346Z,82.83
2018-02-08T08:13:31.683Z,82.70
2018-02-08T08:16:00.074Z,82.65
2018-02-08T08:18:28.409Z,82.63
2018-02-08T08:20:56.795Z,82.53
2018-02-08T08:23:25.132Z,82.27
2018-02-08T08:25:53.487Z,82.25
2018-02-08T08:28:22.832Z,81.88
2018-02-08T08:30:51.204Z,81.61
2018-02-08T08:33:19.542Z,81.41
2018-02-08T08:35:47.886Z,81.11
2018-02-08T08:38:16.222Z,80.81
2018-02-08T08:40:45.603Z,80.39
2018-02-08T08:43:13.931Z,80.64
2018-02-08T08:45:42.292Z,80.15
2018-02-08T08:48:10.752Z,80.74
2018-02-08T08:50:39.231Z,81.01
2018-02-08T08:53:07.569Z,80.71
2018-02-08T08:55:35.898Z,80.74
2018-02-08T08:58:04.255Z,80.63
2018-02-08T09:00:32.579Z,80.49
2018-02-08T09:03:00.946Z,80.76
2018-02-08T09:05:29.357Z,80.52
2018-02-08T09:07:57.716Z,80.58
2018-02-08T09:10:26.051Z,80.24
2018-02-08T09:12:54.530Z,80.34
2018-02-08T09:15:22.854Z,80.34
2018-02-08T09:17:51.190Z,79.88
2018-02-08T09:20:19.538Z,79.94
2018-02-08T09:22:47.904Z,79.46
2018-02-08T09:25:16.254Z,78.91
2018-02-08T09:27:44.593Z,78.35
2018-02-08T09:30:12.945Z,78.57
2018-02-08T09:32:41.279Z,79.09
2018-02-08T09:35:09.731Z,79.12
2018-02-08T09:37:38.043Z,78.77
2018-02-08T09:40:06.400Z,78.20
2018-02-08T09:42:34.734Z,78.51
2018-02-08T09:45:03.098Z,78.59
2018-02-08T09:47:31.438Z,78.20
2018-02-08T09:49:59.902Z,77.80
2018-02-08T09:52:28.264Z,76.93
2018-02-08T09:54:56.656Z,77.13
2018-02-08T09:57:24.994Z,77.10
2018-02-08T09:59:53.413Z,75.97
2018-02-08T10:02:21.894Z,75.73
2018-02-08T10:04:50.205Z,75.48
2018-02-08T10:07:18.611Z,75.58
2018-02-08T10:09:47.028Z,76.63
2018-02-08T10:12:15.477Z,75.58
2018-02-08T10:14:43.795Z,76.20
2018-02-08T10:17:12.167Z,75.47
2018-02-08T10:19:40.482Z,73.78
2018-02-08T10:22:08.843Z,74.22
2018-02-08T10:24:37.198Z,74.40
2018-02-08T10:27:05.570Z,73.84
2018-02-08T10:29:33.926Z,74.96
2018-02-08T10:32:02.266Z,74.85
2018-02-08T10:34:30.626Z,74.38
2018-02-08T10:36:58.949Z,74.73
2018-02-08T10:39:27.293Z,75.49
2018-02-08T10:41:55.632Z,76.30
2018-02-08T10:44:23.985Z,76.68
2018-02-08T10:46:52.312Z,77.22
2018-02-08T10:49:20.675Z,77.03
2018-02-08T10:51:49.001Z,77.07
2018-02-08T10:54:17.410Z,76.47
2018-02-08T10:56:45.735Z,76.78
2018-02-08T10:59:14.095Z,76.43
2018-02-08T11:01:42.435Z,76.54
2018-02-08T11:04:10.904Z,75.64
2018-02-08T11:06:39.307Z,75.74
2018-02-08T11:09:07.618Z,75.06
2018-02-08T11:11:36.174Z,74.56
2018-02-08T11:14:04.660Z,74.52
2018-02-08T11:16:33.072Z,73.56
2018-02-08T11:19:01.410Z,72.89
2018-02-08T11:21:29.770Z,72.41
2018-02-08T11:23:58.111Z,72.93
2018-02-08T11:26:26.465Z,72.69
2018-02-08T11:28:54.835Z,72.12
2018-02-08T11:31:23.303Z,72.05
2018-02-08T11:33:51.705Z,73.29
2018-02-08T11:36:20.028Z,73.22
2018-02-08T11:38:48.386Z,73.09
2018-02-08T11:41:16.727Z,72.61
2018-02-08T11:43:45.076Z,72.08
2018-02-08T11:46:13.491Z,71.52
2018-02-08T11:48:41.822Z,70.81
2018-02-08T11:51:10.186Z,69.73
2018-02-08T11:53:38.528Z,70.03
2018-02-08T11:56:06.881Z,69.97
2018-02-08T11:58:35.210Z,70.58
2018-02-08T12:01:03.598Z,69.82
2018-02-08T12:03:31.947Z,70.03
2018-02-08T12:06:00.287Z,70.29
2018-02-08T12:08:28.629Z,68.74
2018-02-08T12:10:56.969Z,69.68
2018-02-08T12:13:25.305Z,70.13
2018-02-08T12:15:53.763Z,69.38
2018-02-08T12:18:22.267Z,70.40
2018-02-08T12:20:50.600Z,70.62
2018-02-08T12:23:18.929Z,71.09
2018-02-08T12:25:47.372Z,70.98
2018-02-08T12:28:15.686Z,71.43
2018-02-08T12:30:44.052Z,71.28
2018-02-08T12:33:12.426Z,71.32
2018-02-08T12:35:40.774Z,72.13
2018-02-08T12:38:09.106Z,71.29
2018-02-08T12:40:37.496Z,71.47
2018-02-08T12:43:05.836Z,71.34
2018-02-08T12:45:34.169Z,70.91
2018-02-08T12:48:02.509Z,70.62
2018-02-08T12:50:30.846Z,70.50
2018-02-08T12:52:59.245Z,70.72
2018-02-08T12:55:27.605Z,70.93
2018-02-08T12:57:55.956Z,70.45
2018-02-08T13:00:24.373Z,69.86
2018-02-08T13:02:52.735Z,69.23
2018-02-08T13:05:21.072Z,69.58
2018-02-08T13:07:49.398Z,68.84
2018-02-08T13:10:17.742Z,68.34
2018-02-08T13:12:46.068Z,69.93
2018-02-08T13:15:14.414Z,70.45
2018-02-08T13:17:42.766Z,69.69
2018-02-08T13:20:11.110Z,69.15
2018-02-08T13:22:39.446Z,68.81
2018-02-08T13:25:07.834Z,66.72
2018-02-08T13:27:36.153Z,67.51
2018-02-08T13:30:04.492Z,67.42
2018-02-08T13:32:32.871Z,68.27
2018-02-08T13:35:01.191Z,68.42
2018-02-08T13:37:29.592Z,68.32
2018-02-08T13:40:13.715Z,67.50
2018-02-08T13:42:42.235Z,67.03
2018-02-08T13:45:10.586Z,68.24
2018-02-08T13:47:44.538Z,68.57
2018-02-08T13:50:16.714Z,69.39
2018-02-08T13:52:50.827Z,69.50
2018-02-08T13:58:26.670Z,68.83
2018-02-08T14:00:59.503Z,69.01
2018-02-08T14:03:27.861Z,69.07
2018-02-08T14:05:56.255Z,69.53
2018-02-08T14:08:24.591Z,70.76
2018-02-08T14:10:52.942Z,72.06
2018-02-08T14:13:21.268Z,71.77
2018-02-08T14:15:49.660Z,71.87
2018-02-08T14:18:17.990Z,72.83
2018-02-08T14:20:46.332Z,73.84
2018-02-08T14:23:14.662Z,73.13
2018-02-08T14:25:43.000Z,72.60
2018-02-08T14:28:11.374Z,74.09
2018-02-08T14:30:39.702Z,74.43
2018-02-08T14:33:08.021Z,74.52
2018-02-08T14:35:36.423Z,74.50
2018-02-08T14:38:04.907Z,74.77
2018-02-08T14:40:33.223Z,75.09
2018-02-08T14:43:01.569Z,75.04
2018-02-08T14:45:29.949Z,74.81
2018-02-08T14:47:58.317Z,74.94
2018-02-08T14:50:26.638Z,74.71
2018-02-08T14:52:55.006Z,75.53
2018-02-08T14:55:23.314Z,75.09
2018-02-08T14:57:51.730Z,75.34
2018-02-08T15:00:20.040Z,75.05
2018-02-08T15:02:48.694Z,75.57
2018-02-08T15:05:17.070Z,75.92
2018-02-08T15:07:45.389Z,76.15
2018-02-08T15:10:13.784Z,76.06
2018-02-08T15:12:42.502Z,75.76
2018-02-08T15:15:10.849Z,76.60
2018-02-08T15:17:39.187Z,76.46
2018-02-08T15:20:07.649Z,76.41
2018-02-08T15:22:36.025Z,76.73
2018-02-08T15:25:04.368Z,76.60
2018-02-08T15:27:32.700Z,76.50
2018-02-08T15:30:01.055Z,76.46
2018-02-08T15:32:29.372Z,75.75
2018-02-08T15:34:57.756Z,75.33
2018-02-08T15:37:26.072Z,74.83
2018-02-08T15:39:54.920Z,75.78
2018-02-08T15:42:23.574Z,75.79
2018-02-08T15:44:51.940Z,75.91
2018-02-08T15:47:20.318Z,75.96
2018-02-08T15:49:48.635Z,76.36
2018-02-08T15:52:17.082Z,77.17
2018-02-08T15:54:45.559Z,76.68
2018-02-08T15:57:13.935Z,76.62
2018-02-08T15:59:42.251Z,76.78
2018-02-08T16:02:10.607Z,76.80
2018-02-08T16:04:38.945Z,77.13
2018-02-08T16:07:07.277Z,77.01
2018-02-08T16:09:35.615Z,77.36
2018-02-08T16:12:03.954Z,77.37
2018-02-08T16:14:32.316Z,77.66
2018-02-08T16:17:00.658Z,77.97
2018-02-08T16:19:29.003Z,77.44
2018-02-08T16:21:57.338Z,76.98
2018-02-08T16:24:25.690Z,77.13
2018-02-08T16:26:54.014Z,77.15
2018-02-08T16:29:22.374Z,77.55
2018-02-08T16:31:51.369Z,77.45
2018-02-08T16:34:19.782Z,77.91
2018-02-08T16:36:48.094Z,78.01
2018-02-08T16:39:16.490Z,77.96
2018-02-08T16:41:44.814Z,78.42
2018-02-08T16:44:13.153Z,78.57
2018-02-08T16:46:41.499Z,79.54
2018-02-08T16:49:09.863Z,79.92
2018-02-08T16:51:38.207Z,79.85
2018-02-08T16:54:06.552Z,79.84
2018-02-08T16:56:34.896Z,79.44
2018-02-08T16:59:03.301Z,79.58
2018-02-08T17:01:31.640Z,79.73
2018-02-08T17:03:59.970Z,79.90
2018-02-08T17:06:28.352Z,80.20
2018-02-08T17:08:56.656Z,79.80
2018-02-08T17:11:25.030Z,79.63
2018-02-08T17:13:53.541Z,79.93
2018-02-08T17:16:21.914Z,80.11
2018-02-08T17:18:50.285Z,79.56
2018-02-08T17:21:18.733Z,79.06
2018-02-08T17:23:47.958Z,78.82
2018-02-08T17:26:16.293Z,79.00
2018-02-08T17:28:44.839Z,79.09
2018-02-08T17:31:13.205Z,79.07
2018-02-08T17:33:41.546Z,79.10
2018-02-08T17:36:09.891Z,78.78
2018-02-08T17:38:38.235Z,78.62
2018-02-08T17:41:06.562Z,78.87
2018-02-08T17:43:34.898Z,78.88
2018-02-08T17:46:03.378Z,79.10
2018-02-08T17:48:31.782Z,78.96
2018-02-08T17:51:00.108Z,78.61
2018-02-08T17:53:28.440Z,78.32
2018-02-08T17:55:56.807Z,78.74
2018-02-08T17:58:25.119Z,78.66
2018-02-08T18:00:53.467Z,78.72
2018-02-08T18:03:21.797Z,78.38
2018-02-08T18:05:50.153Z,78.63
2018-02-08T18:08:18.486Z,78.12
2018-02-08T18:10:46.982Z,78.25
2018-02-08T18:13:15.287Z,78.23
2018-02-08T18:15:43.842Z,78.61
2018-02-08T18:18:12.156Z,78.53
2018-02-08T18:20:40.719Z,78.22
2018-02-08T18:23:09.067Z,78.65
2018-02-08T18:25:37.396Z,78.04
2018-02-08T18:28:05.717Z,77.70
2018-02-08T18:30:34.046Z,77.72
2018-02-08T18:33:02.362Z,77.51
2018-02-08T18:35:30.707Z,77.52
2018-02-08T18:37:59.058Z,78.23
2018-02-08T18:40:27.415Z,78.79
2018-02-08T18:42:55.728Z,78.56
2018-02-08T18:45:24.058Z,77.89
2018-02-08T18:47:52.373Z,77.43
2018-02-08T18:50:20.719Z,77.36
2018-02-08T18:52:49.058Z,77.29
2018-02-08T18:55:17.366Z,76.81
2018-02-08T18:57:45.762Z,76.88
2018-02-08T19:00:14.083Z,76.87
2018-02-08T19:02:42.520Z,77.33
2018-02-08T19:05:10.862Z,76.89
2018-02-08T19:07:39.272Z,76.67
2018-02-08T19:10:07.593Z,76.92
2018-02-08T19:12:35.909Z,76.63
2018-02-08T19:15:04.321Z,76.09
2018-02-08T19:17:32.685Z,75.93
2018-02-08T19:20:01.035Z,75.85
2018-02-08T19:22:29.399Z,76.50
2018-02-08T19:24:57.735Z,77.02
2018-02-08T19:27:26.056Z,76.97
2018-02-08T19:29:54.434Z,77.09
2018-02-08T19:32:22.772Z,76.99
2018-02-08T19:34:51.094Z,76.82
2018-02-08T19:37:19.442Z,76.72
2018-02-08T19:39:47.846Z,76.52
2018-02-08T19:42:16.162Z,76.70
2018-02-08T19:44:44.790Z,76.76
2018-02-08T19:47:13.126Z,76.34
2018-02-08T19:49:41.446Z,76.25
2018-02-08T19:52:09.769Z,76.22
2018-02-08T19:54:38.122Z,76.27
2018-02-08T19:57:06.463Z,76.13
2018-02-08T19:59:34.822Z,76.07
2018-02-08T20:02:03.258Z,76.53
2018-02-08T20:04:31.672Z,76.73
2018-02-08T20:07:00.047Z,77.15
2018-02-08T20:09:28.398Z,77.50
2018-02-08T20:11:56.727Z,77.57
2018-02-08T20:14:30.621Z,77.84
2018-02-08T20:16:58.955Z,78.20
2018-02-08T20:19:27.291Z,78.40
2018-02-08T20:21:55.643Z,78.45
2018-02-08T20:24:23.963Z,78.47
2018-02-08T20:26:52.367Z,78.57
2018-02-08T20:29:20.683Z,78.61
2018-02-08T20:31:49.003Z,78.46
2018-02-08T20:34:17.356Z,78.58
2018-02-08T20:36:45.659Z,78.98
2018-02-08T20:39:13.990Z,78.90
2018-02-08T20:41:42.367Z,78.81
2018-02-08T20:44:10.740Z,79.06
2018-02-08T20:46:39.046Z,78.99
2018-02-08T20:49:07.386Z,79.22
2018-02-08T20:51:35.705Z,79.41
2018-02-08T20:54:04.053Z,79.47
2018-02-08T20:56:32.366Z,79.29
2018-02-08T20:59:00.699Z,78.70
2018-02-08T21:01:29.019Z,78.20
2018-02-08T21:03:57.363Z,78.08
2018-02-08T21:06:25.686Z,78.35
2018-02-08T21:08:54.019Z,78.80
2018-02-08T21:11:22.343Z,79.24
2018-02-08T21:13:50.732Z,79.39
2018-02-08T21:16:19.094Z,79.72
2018-02-08T21:18:47.428Z,79.62
2018-02-08T21:21:15.756Z,79.84
2018-02-08T21:23:44.078Z,80.27
2018-02-08T21:26:12.409Z,80.49
2018-02-08T21:28:40.730Z,80.33
2018-02-08T21:31:09.107Z,80.14
2018-02-08T21:33:37.405Z,80.32
2018-02-08T21:36:05.741Z,80.59
2018-02-08T21:38:34.061Z,80.64
2018-02-08T21:41:02.389Z,80.87
2018-02-08T21:43:30.736Z,80.92
2018-02-08T21:45:59.197Z,80.86
2018-02-08T21:48:27.513Z,80.85
2018-02-08T21:50:55.937Z,80.67
2018-02-08T21:53:24.313Z,80.62
2018-02-08T21:55:52.622Z,80.83
2018-02-08T21:58:20.972Z,80.98
2018-02-08T22:00:49.298Z,81.22
2018-02-08T22:03:17.642Z,81.56
2018-02-08T22:05:46.021Z,81.87
2018-02-08T22:08:14.301Z,81.97
2018-02-08T22:10:42.693Z,82.07
2018-02-08T22:13:11.044Z,82.20
2018-02-08T22:15:39.395Z,82.25
2018-02-08T22:18:07.729Z,82.36
2018-02-08T22:20:36.085Z,82.52
2018-02-08T22:23:04.511Z,82.55
2018-02-08T22:25:32.834Z,82.57
2018-02-08T22:28:01.185Z,82.35
2018-02-08T22:30:29.500Z,82.30
2018-02-08T22:32:57.953Z,82.43
2018-02-08T22:35:26.279Z,82.40
2018-02-08T22:37:54.610Z,82.21
2018-02-08T22:40:22.984Z,82.12
2018-02-08T22:42:51.322Z,81.89
2018-02-08T22:45:19.664Z,81.78
2018-02-08T22:47:48.101Z,81.84
2018-02-08T22:50:16.493Z,81.68
2018-02-08T22:52:45.742Z,81.67
2018-02-08T22:55:14.090Z,81.65
2018-02-08T22:57:42.415Z,81.86
2018-02-08T23:00:10.779Z,81.68
2018-02-08T23:02:39.209Z,81.49
2018-02-08T23:05:07.573Z,81.61
2018-02-08T23:07:35.973Z,81.50
2018-02-08T23:10:04.309Z,81.19
2018-02-08T23:12:32.721Z,80.92
2018-02-08T23:15:01.035Z,80.84
2018-02-08T23:17:29.355Z,81.08
2018-02-08T23:19:57.682Z,80.85
2018-02-08T23:22:26.038Z,81.11
2018-02-08T23:24:54.375Z,81.16
2018-02-08T23:27:22.707Z,81.32
2018-02-08T23:29:51.042Z,81.55
2018-02-08T23:32:19.633Z,81.68
2018-02-08T23:34:47.989Z,81.77
2018-02-08T23:37:16.333Z,82.01
2018-02-08T23:39:44.655Z,82.07
2018-02-08T23:42:13.057Z,81.83
2018-02-08T23:44:41.479Z,81.84
2018-02-08T23:47:09.772Z,81.93
2018-02-08T23:49:38.103Z,81.90
2018-02-08T23:52:06.430Z,81.91
2018-02-08T23:54:34.771Z,81.97
2018-02-08T23:57:03.090Z,81.99
2018-02-08T23:59:31.650Z,81.95
